Time;durP1;ratioP1;P1;durP2;ratioP2;P2;SDS_P1;SDS_P2;PMS_P1;PMS_P2;Temp;Humidity;BMP_temperature;BMP_pressure;BME280_temperature;BME280_humidity;BME280_pressure;Samples;Min_cycle;Max_cycle;Signal;HPM_P1;HPM_P2
2023/04/17 00:01:30;;;;;;;32.60;25.23;;;10.60;99.90;;;;;;6243020;23;20314;-74
2023/04/17 00:03:56;;;;;;;29.55;24.00;;;10.60;99.90;;;;;;6244160;23;20007;-75
2023/04/17 00:06:23;;;;;;;32.30;23.20;;;10.50;99.90;;;;;;6243566;22;20322;-74
2023/04/17 00:08:48;;;;;;;29.00;23.77;;;10.50;99.90;;;;;;6244271;22;20326;-74
2023/04/17 00:11:14;;;;;;;30.42;23.90;;;10.50;99.90;;;;;;6243863;23;20006;-74
2023/04/17 00:13:40;;;;;;;26.60;21.67;;;10.50;99.90;;;;;;6243893;22;20003;-74
2023/04/17 00:16:09;;;;;;;28.50;22.02;;;10.50;99.90;;;;;;6249046;22;20007;-75
2023/04/17 00:18:35;;;;;;;33.53;24.80;;;10.50;99.90;;;;;;6257881;22;20044;-74
2023/04/17 00:21:00;;;;;;;30.95;24.05;;;10.50;99.90;;;;;;6254379;22;20022;-74
2023/04/17 00:23:26;;;;;;;34.03;24.98;;;10.40;99.90;;;;;;6247001;23;20075;-75
2023/04/17 00:25:51;;;;;;;36.97;24.10;;;10.50;99.90;;;;;;6244705;23;20381;-75
2023/04/17 00:28:17;;;;;;;33.53;23.88;;;10.50;99.90;;;;;;6243655;23;20480;-75
2023/04/17 00:30:42;;;;;;;32.97;23.65;;;10.50;99.90;;;;;;6243499;23;20027;-75
2023/04/17 00:33:08;;;;;;;27.92;22.13;;;10.50;99.90;;;;;;6243683;23;20087;-75
2023/04/17 00:35:33;;;;;;;32.95;23.98;;;10.50;99.90;;;;;;6243254;23;20007;-75
2023/04/17 00:37:59;;;;;;;35.55;26.17;;;10.50;99.90;;;;;;6243977;23;20004;-75
2023/04/17 00:40:25;;;;;;;35.08;25.20;;;10.40;99.90;;;;;;6243417;23;20135;-75
2023/04/17 00:42:54;;;;;;;32.03;24.20;;;10.50;99.90;;;;;;6243806;22;20004;-75
2023/04/17 00:45:20;;;;;;;30.55;24.67;;;10.40;99.90;;;;;;6242846;22;20426;-75
2023/04/17 00:47:48;;;;;;;35.53;24.33;;;10.40;99.90;;;;;;6243592;22;20054;-75
2023/04/17 00:50:14;;;;;;;33.30;23.90;;;10.40;99.90;;;;;;6243141;22;20008;-75
2023/04/17 00:52:40;;;;;;;33.30;24.45;;;10.40;99.90;;;;;;6243676;22;20065;-74
2023/04/17 00:55:06;;;;;;;30.67;23.98;;;10.40;99.90;;;;;;6243768;22;20012;-75
2023/04/17 00:57:33;;;;;;;34.53;26.07;;;10.40;99.90;;;;;;6243078;22;20051;-74
2023/04/17 00:59:58;;;;;;;35.25;25.63;;;10.40;99.90;;;;;;6243096;23;19996;-76
2023/04/17 01:02:25;;;;;;;33.40;24.20;;;10.40;99.90;;;;;;6242751;23;20472;-74
2023/04/17 01:04:50;;;;;;;30.98;23.17;;;10.30;99.90;;;;;;6243646;22;20007;-75
2023/04/17 01:07:17;;;;;;;33.50;24.30;;;10.30;99.90;;;;;;6242997;23;20422;-75
2023/04/17 01:09:42;;;;;;;31.00;24.17;;;10.30;99.90;;;;;;6243603;22;20072;-75
2023/04/17 01:12:35;;;;;;;38.95;27.55;;;10.30;99.90;;;;;;6243364;23;20035;-75
2023/04/17 01:15:00;;;;;;;30.05;22.90;;;10.30;99.90;;;;;;6237811;22;20008;-75
2023/04/17 01:17:26;;;;;;;36.63;26.17;;;10.30;99.90;;;;;;6242737;23;20455;-74
2023/04/17 01:19:52;;;;;;;41.83;25.43;;;10.20;99.90;;;;;;6243640;22;20035;-75
2023/04/17 01:22:21;;;;;;;34.80;26.67;;;10.30;99.90;;;;;;6242768;22;20008;-74
2023/04/17 01:24:47;;;;;;;32.88;23.77;;;10.20;99.90;;;;;;6243639;22;20000;-75
2023/04/17 01:27:14;;;;;;;36.72;25.55;;;10.30;99.90;;;;;;6241204;23;20000;-75
2023/04/17 01:29:40;;;;;;;38.13;27.65;;;10.20;99.90;;;;;;6242678;22;20023;-75
2023/04/17 01:32:06;;;;;;;39.33;28.17;;;10.20;99.90;;;;;;6243016;22;20016;-75
2023/04/17 01:34:32;;;;;;;36.67;25.00;;;10.20;99.90;;;;;;6242765;22;20008;-75
2023/04/17 01:36:57;;;;;;;32.83;25.65;;;10.20;99.90;;;;;;6243207;23;20039;-75
2023/04/17 01:39:23;;;;;;;39.65;27.88;;;10.20;99.90;;;;;;6242514;23;20075;-75
2023/04/17 01:41:50;;;;;;;37.17;26.30;;;10.20;99.90;;;;;;6240988;23;20016;-76
2023/04/17 01:44:16;;;;;;;37.00;27.73;;;10.20;99.90;;;;;;6242797;22;20000;-74
2023/04/17 01:46:41;;;;;;;43.08;29.70;;;10.10;99.90;;;;;;6242623;22;20000;-75
2023/04/17 01:49:07;;;;;;;38.35;27.73;;;10.10;99.90;;;;;;6242975;23;20007;-75
2023/04/17 01:51:32;;;;;;;34.53;25.85;;;10.10;99.90;;;;;;6242656;23;20031;-75
2023/04/17 01:53:59;;;;;;;35.17;26.02;;;10.10;99.90;;;;;;6243161;23;19996;-75
2023/04/17 01:56:25;;;;;;;38.95;28.10;;;10.10;99.90;;;;;;6242156;22;20000;-75
2023/04/17 01:58:53;;;;;;;38.65;26.75;;;10.10;99.90;;;;;;6243123;22;20058;-74
2023/04/17 02:01:18;;;;;;;41.47;28.85;;;10.20;99.90;;;;;;6242557;22;19996;-75
2023/04/17 02:03:44;;;;;;;37.10;26.25;;;10.20;99.90;;;;;;6241237;23;20113;-75
2023/04/17 02:06:10;;;;;;;38.55;28.80;;;10.10;99.90;;;;;;6243011;23;20069;-75
2023/04/17 02:08:36;;;;;;;39.17;27.70;;;10.10;99.90;;;;;;6243053;22;20011;-75
2023/04/17 02:11:02;;;;;;;40.87;30.10;;;10.10;99.90;;;;;;6241027;23;20326;-75
2023/04/17 02:13:27;;;;;;;40.53;29.03;;;10.10;99.90;;;;;;6242323;22;20377;-74
2023/04/17 02:15:53;;;;;;;40.87;30.37;;;10.10;99.90;;;;;;6243015;23;20004;-75
2023/04/17 02:18:19;;;;;;;42.03;30.67;;;10.10;99.90;;;;;;6242101;23;20004;-74
2023/04/17 02:20:45;;;;;;;43.70;31.37;;;10.10;99.90;;;;;;6243107;22;20134;-75
2023/04/17 02:23:11;;;;;;;38.63;26.80;;;10.10;99.90;;;;;;6242495;23;20036;-75
2023/04/17 02:25:36;;;;;;;44.43;30.53;;;10.10;99.90;;;;;;6242266;22;20328;-74
2023/04/17 02:28:02;;;;;;;43.25;30.30;;;10.00;99.90;;;;;;6242691;23;20147;-74
2023/04/17 02:30:28;;;;;;;43.92;32.17;;;10.00;99.90;;;;;;6242349;22;20326;-74
2023/04/17 02:32:54;;;;;;;35.43;26.27;;;10.00;99.90;;;;;;6242746;23;20015;-75
2023/04/17 02:35:21;;;;;;;43.43;31.60;;;10.00;99.90;;;;;;6242092;22;20307;-75
2023/04/17 02:37:47;;;;;;;45.40;31.88;;;10.00;99.90;;;;;;6242734;22;20004;-75
2023/04/17 02:40:13;;;;;;;41.50;29.67;;;10.00;99.90;;;;;;6241638;23;20007;-75
2023/04/17 02:42:39;;;;;;;42.67;31.10;;;10.00;99.90;;;;;;6242678;22;20008;-75
2023/04/17 02:45:05;;;;;;;44.90;32.25;;;10.00;99.90;;;;;;6242628;23;20075;-74
2023/04/17 02:47:30;;;;;;;40.60;30.70;;;10.00;99.90;;;;;;6242297;22;20055;-75
2023/04/17 02:49:58;;;;;;;42.88;30.48;;;10.00;99.90;;;;;;6242351;23;20614;-74
2023/04/17 02:52:25;;;;;;;44.13;31.60;;;10.00;99.90;;;;;;6239101;23;20004;-74
2023/04/17 02:54:50;;;;;;;46.25;31.35;;;10.00;99.90;;;;;;6241369;22;20003;-74
2023/04/17 02:57:16;;;;;;;42.47;30.17;;;10.00;99.90;;;;;;6240166;23;20004;-74
2023/04/17 02:59:41;;;;;;;41.22;29.95;;;10.00;99.90;;;;;;6241884;23;20418;-74
2023/04/17 03:02:07;;;;;;;43.75;30.10;;;10.00;99.90;;;;;;6242263;23;20012;-74
2023/04/17 03:04:33;;;;;;;42.50;31.47;;;10.10;99.90;;;;;;6241966;23;20000;-74
2023/04/17 03:06:59;;;;;;;44.65;32.75;;;10.00;99.90;;;;;;6242528;22;19996;-74
2023/04/17 03:09:25;;;;;;;39.50;29.17;;;10.00;99.90;;;;;;6239791;23;20083;-74
2023/04/17 03:11:51;;;;;;;41.70;31.38;;;10.00;99.90;;;;;;6240911;23;20331;-74
2023/04/17 03:14:16;;;;;;;47.90;33.05;;;9.90;99.90;;;;;;6242001;23;20008;-74
2023/04/17 03:16:42;;;;;;;46.55;32.75;;;9.90;99.90;;;;;;6242389;23;20039;-74
2023/04/17 03:19:07;;;;;;;44.43;30.50;;;9.90;99.90;;;;;;6242097;23;20008;-74
2023/04/17 03:21:33;;;;;;;41.72;29.13;;;9.80;99.90;;;;;;6240214;23;20349;-74
2023/04/17 03:23:58;;;;;;;40.03;27.77;;;9.90;99.90;;;;;;6240190;23;20000;-74
2023/04/17 03:26:24;;;;;;;42.50;29.67;;;9.90;99.90;;;;;;6242056;22;20023;-74
2023/04/17 03:28:50;;;;;;;46.25;31.70;;;9.90;99.90;;;;;;6240763;23;20000;-74
2023/04/17 03:31:15;;;;;;;47.83;33.47;;;9.90;99.90;;;;;;6241777;23;20012;-74
2023/04/17 03:33:41;;;;;;;37.38;28.45;;;9.90;99.90;;;;;;6242240;23;20004;-74
2023/04/17 03:36:07;;;;;;;43.60;32.00;;;9.90;99.90;;;;;;6242323;23;20419;-74
2023/04/17 03:38:33;;;;;;;42.03;29.93;;;9.80;99.90;;;;;;6241203;22;20004;-74
2023/04/17 03:40:59;;;;;;;42.30;29.27;;;9.80;99.90;;;;;;6242595;22;20024;-74
2023/04/17 03:43:24;;;;;;;43.90;30.93;;;9.90;99.90;;;;;;6241560;23;20009;-74
2023/04/17 03:45:50;;;;;;;47.07;32.37;;;9.90;99.90;;;;;;6242444;23;20004;-74
2023/04/17 03:48:16;;;;;;;38.53;28.17;;;9.90;99.90;;;;;;6240078;23;20008;-74
2023/04/17 03:50:41;;;;;;;42.42;30.55;;;9.90;99.90;;;;;;6242307;23;20007;-74
2023/04/17 03:53:07;;;;;;;48.38;32.28;;;9.90;99.90;;;;;;6241398;23;20004;-74
2023/04/17 03:55:32;;;;;;;47.10;30.85;;;9.90;99.90;;;;;;6241894;23;20484;-74
2023/04/17 03:57:58;;;;;;;50.47;31.43;;;10.00;99.90;;;;;;6242206;23;20004;-74
2023/04/17 04:00:24;;;;;;;46.75;34.08;;;9.90;99.90;;;;;;6239969;23;20040;-74
2023/04/17 04:02:50;;;;;;;45.40;32.03;;;9.90;99.90;;;;;;6240563;23;20004;-74
2023/04/17 04:05:16;;;;;;;45.75;32.22;;;9.90;99.90;;;;;;6239946;23;20088;-74
2023/04/17 04:07:41;;;;;;;46.43;31.80;;;9.90;99.90;;;;;;6239909;23;20058;-74
2023/04/17 04:10:07;;;;;;;45.00;30.77;;;9.90;99.90;;;;;;6243187;23;20368;-74
2023/04/17 04:12:33;;;;;;;49.92;32.92;;;9.90;99.90;;;;;;6243634;23;20004;-74
2023/04/17 04:14:58;;;;;;;47.63;32.88;;;9.90;99.90;;;;;;6244297;23;20004;-74
2023/04/17 04:17:23;;;;;;;50.83;32.63;;;9.80;99.90;;;;;;6243338;23;20427;-74
2023/04/17 04:19:49;;;;;;;47.08;30.85;;;9.80;99.90;;;;;;6244121;23;20004;-74
2023/04/17 04:22:15;;;;;;;45.05;30.00;;;9.80;99.90;;;;;;6242766;23;20181;-74
2023/04/17 04:24:41;;;;;;;41.45;30.55;;;9.80;99.90;;;;;;6243846;22;20445;-74
2023/04/17 04:27:07;;;;;;;46.42;29.45;;;9.80;99.90;;;;;;6243381;22;20000;-74
2023/04/17 04:29:32;;;;;;;43.38;28.25;;;9.80;99.90;;;;;;6242388;23;20003;-74
2023/04/17 04:31:58;;;;;;;45.35;30.45;;;9.80;99.90;;;;;;6242924;23;20016;-74
2023/04/17 04:34:24;;;;;;;43.90;30.40;;;9.80;99.90;;;;;;6242160;23;20058;-74
2023/04/17 04:36:53;;;;;;;42.30;29.23;;;9.80;99.90;;;;;;6242754;22;20011;-74
2023/04/17 04:39:19;;;;;;;48.30;31.20;;;9.80;99.90;;;;;;6242872;23;20009;-74
2023/04/17 04:41:54;;;;;;;40.07;28.10;;;9.70;99.90;;;;;;6241866;23;20350;-74
2023/04/17 04:44:20;;;;;;;49.15;31.02;;;9.80;99.90;;;;;;6243525;22;20003;-74
2023/04/17 04:46:46;;;;;;;40.53;27.02;;;9.70;99.90;;;;;;6242595;23;20008;-74
2023/04/17 04:49:12;;;;;;;43.80;29.05;;;9.70;99.90;;;;;;6243643;23;20000;-74
2023/04/17 04:51:38;;;;;;;42.07;30.43;;;9.70;99.90;;;;;;6243215;23;20012;-74
2023/04/17 04:54:04;;;;;;;41.33;29.25;;;9.80;99.90;;;;;;6242129;23;20008;-75
2023/04/17 04:56:30;;;;;;;44.50;29.88;;;9.70;99.90;;;;;;6244476;22;20000;-74
2023/04/17 04:58:56;;;;;;;45.53;32.27;;;9.70;99.90;;;;;;6244687;22;20019;-74
2023/04/17 05:01:21;;;;;;;44.78;30.52;;;9.80;99.90;;;;;;6243920;23;20000;-74
2023/04/17 05:03:47;;;;;;;44.40;29.70;;;9.80;99.90;;;;;;6243602;23;19996;-74
2023/04/17 05:06:13;;;;;;;46.80;31.40;;;9.80;99.90;;;;;;6241638;23;20004;-74
2023/04/17 05:08:41;;;;;;;44.80;32.05;;;9.80;99.90;;;;;;6243704;22;20004;-75
2023/04/17 05:11:07;;;;;;;40.25;29.70;;;9.80;99.90;;;;;;6241782;23;20377;-74
2023/04/17 05:13:33;;;;;;;43.65;31.40;;;9.80;99.90;;;;;;6242897;23;20004;-74
2023/04/17 05:15:58;;;;;;;37.97;26.97;;;9.80;99.90;;;;;;6243248;23;20418;-74
2023/04/17 05:18:24;;;;;;;52.88;33.53;;;9.80;99.90;;;;;;6242754;23;20430;-74
2023/04/17 05:20:50;;;;;;;37.60;25.92;;;9.70;99.90;;;;;;6241237;23;20075;-74
2023/04/17 05:23:16;;;;;;;41.03;28.37;;;9.70;99.90;;;;;;6241211;23;20008;-74
2023/04/17 05:25:42;;;;;;;45.28;31.23;;;9.70;99.90;;;;;;6243351;22;20430;-75
2023/04/17 05:28:07;;;;;;;46.15;29.02;;;9.70;99.90;;;;;;6241500;23;20000;-74
2023/04/17 05:30:33;;;;;;;49.10;31.83;;;9.70;99.90;;;;;;6242755;23;20000;-74
2023/04/17 05:32:59;;;;;;;40.53;27.73;;;9.70;99.90;;;;;;6243152;22;20477;-74
2023/04/17 05:35:26;;;;;;;47.47;31.37;;;9.70;99.90;;;;;;6242021;22;20307;-74
2023/04/17 05:37:52;;;;;;;41.37;30.47;;;9.70;99.90;;;;;;6243405;22;20000;-74
2023/04/17 05:40:18;;;;;;;39.03;27.73;;;9.80;99.90;;;;;;6242993;22;20004;-74
2023/04/17 05:42:44;;;;;;;44.25;29.58;;;9.80;99.90;;;;;;6243144;22;20011;-74
2023/04/17 05:45:14;;;;;;;48.67;31.00;;;9.80;99.90;;;;;;6243153;23;20425;-74
2023/04/17 05:47:40;;;;;;;38.67;26.88;;;9.90;99.90;;;;;;6243063;22;20074;-74
2023/04/17 05:50:06;;;;;;;46.75;30.85;;;9.90;99.90;;;;;;6242535;22;20004;-75
2023/04/17 05:52:32;;;;;;;47.63;31.33;;;9.90;99.90;;;;;;6242535;22;20004;-74
2023/04/17 05:54:58;;;;;;;42.63;30.37;;;10.00;99.90;;;;;;6241618;23;20326;-74
2023/04/17 05:57:23;;;;;;;50.28;33.60;;;10.00;99.90;;;;;;6242471;23;20115;-74
2023/04/17 05:59:49;;;;;;;45.25;30.50;;;10.00;99.90;;;;;;6243037;23;20003;-74
2023/04/17 06:02:15;;;;;;;40.47;30.47;;;10.00;99.90;;;;;;6242344;23;20015;-74
2023/04/17 06:04:41;;;;;;;39.97;30.63;;;10.00;99.90;;;;;;6240631;23;20054;-74
2023/04/17 06:07:07;;;;;;;43.53;30.85;;;10.00;99.90;;;;;;6242807;22;19996;-72
2023/04/17 06:09:33;;;;;;;46.50;31.67;;;10.10;99.90;;;;;;6242604;22;19997;-71
2023/04/17 06:11:59;;;;;;;41.13;30.85;;;10.10;99.90;;;;;;6242858;23;20004;-72
2023/04/17 06:14:24;;;;;;;49.45;34.40;;;10.20;99.90;;;;;;6240622;23;20004;-72
2023/04/17 06:16:50;;;;;;;39.88;29.35;;;10.20;99.90;;;;;;6242693;23;20004;-71
2023/04/17 06:19:15;;;;;;;41.92;29.25;;;10.20;99.90;;;;;;6241772;23;20004;-71
2023/04/17 06:21:41;;;;;;;46.88;33.38;;;10.20;99.90;;;;;;6242512;23;20069;-71
2023/04/17 06:24:07;;;;;;;40.38;29.52;;;10.20;99.90;;;;;;6242806;23;20008;-72
2023/04/17 06:26:33;;;;;;;41.78;29.58;;;10.30;99.90;;;;;;6242365;22;20010;-72
2023/04/17 06:28:59;;;;;;;39.63;28.87;;;10.30;99.90;;;;;;6241202;23;20005;-72
2023/04/17 06:31:25;;;;;;;41.45;30.17;;;10.30;99.90;;;;;;6241693;22;20385;-72
2023/04/17 06:33:51;;;;;;;41.08;30.73;;;10.30;99.90;;;;;;6242077;22;20007;-72
2023/04/17 06:36:16;;;;;;;45.25;31.85;;;10.30;99.90;;;;;;6241989;23;20004;-72
2023/04/17 06:38:42;;;;;;;41.60;29.38;;;10.30;99.90;;;;;;6242604;23;20084;-73
2023/04/17 06:41:07;;;;;;;48.28;31.88;;;10.30;99.90;;;;;;6242458;23;20039;-72
2023/04/17 06:43:33;;;;;;;44.65;30.15;;;10.30;99.90;;;;;;6241971;23;20000;-72
2023/04/17 06:45:59;;;;;;;38.35;27.45;;;10.40;99.90;;;;;;6240989;23;20000;-72
2023/04/17 06:48:24;;;;;;;39.63;28.92;;;10.40;99.90;;;;;;6240817;22;20008;-72
2023/04/17 06:50:50;;;;;;;45.58;30.85;;;10.40;99.90;;;;;;6242112;23;20050;-72
2023/04/17 06:53:15;;;;;;;41.10;30.02;;;10.40;99.90;;;;;;6241543;23;20008;-72
2023/04/17 06:55:41;;;;;;;48.47;32.83;;;10.40;99.90;;;;;;6242107;23;20083;-72
2023/04/17 06:58:07;;;;;;;42.13;30.53;;;10.50;99.90;;;;;;6242035;23;20053;-72
2023/04/17 07:00:33;;;;;;;42.60;29.88;;;10.40;99.90;;;;;;6237890;22;20434;-71
2023/04/17 07:02:59;;;;;;;39.92;31.25;;;10.40;99.90;;;;;;6235696;23;20004;-72
2023/04/17 07:05:25;;;;;;;43.75;28.48;;;10.50;99.90;;;;;;6240135;22;20065;-71
2023/04/17 07:07:50;;;;;;;45.50;32.20;;;10.50;99.90;;;;;;6241270;22;20411;-71
2023/04/17 07:10:18;;;;;;;45.58;32.17;;;10.40;99.90;;;;;;6241088;23;20004;-72
2023/04/17 07:12:44;;;;;;;45.73;33.87;;;10.40;99.90;;;;;;6242037;22;20000;-71
2023/04/17 07:15:10;;;;;;;46.97;34.33;;;10.40;99.90;;;;;;6242330;22;20058;-72
2023/04/17 07:17:35;;;;;;;47.70;32.55;;;10.50;99.90;;;;;;6239830;22;20396;-72
2023/04/17 07:20:01;;;;;;;41.22;30.50;;;10.50;99.90;;;;;;6242450;22;20035;-72
2023/04/17 07:22:27;;;;;;;42.22;30.73;;;10.50;99.90;;;;;;6239417;23;20004;-72
2023/04/17 07:24:53;;;;;;;47.03;34.55;;;10.50;99.90;;;;;;6241935;22;20008;-72
2023/04/17 07:27:19;;;;;;;47.22;33.55;;;10.50;99.90;;;;;;6240863;23;20099;-72
2023/04/17 07:29:46;;;;;;;46.05;31.75;;;10.50;99.90;;;;;;6241786;23;19996;-71
2023/04/17 07:32:13;;;;;;;48.38;32.78;;;10.60;99.90;;;;;;6241420;22;20020;-72
2023/04/17 07:34:40;;;;;;;42.30;31.47;;;10.60;99.90;;;;;;6242138;22;20012;-72
2023/04/17 07:37:05;;;;;;;47.85;34.47;;;10.60;99.90;;;;;;6240603;23;19996;-71
2023/04/17 07:39:31;;;;;;;45.67;34.03;;;10.70;99.90;;;;;;6239228;23;20011;-72
2023/04/17 07:41:57;;;;;;;43.85;32.08;;;10.80;99.90;;;;;;6240470;23;20334;-72
2023/04/17 07:44:22;;;;;;;49.45;34.03;;;10.90;99.90;;;;;;6240345;23;20030;-72
2023/04/17 07:46:47;;;;;;;46.20;34.10;;;11.00;99.90;;;;;;6242894;23;20080;-72
2023/04/17 07:49:13;;;;;;;47.97;35.72;;;11.10;99.90;;;;;;6242296;23;20000;-72
2023/04/17 07:51:39;;;;;;;47.03;33.97;;;11.20;99.90;;;;;;6243640;23;20000;-72
2023/04/17 07:54:05;;;;;;;50.03;36.47;;;11.20;99.90;;;;;;6244164;22;19997;-72
2023/04/17 07:56:33;;;;;;;45.65;34.90;;;11.20;99.90;;;;;;6243718;22;20011;-72
2023/04/17 07:58:59;;;;;;;45.70;33.03;;;11.30;99.90;;;;;;6243605;22;19996;-72
2023/04/17 08:01:25;;;;;;;45.35;32.53;;;11.30;99.90;;;;;;6241448;22;20004;-71
2023/04/17 08:03:52;;;;;;;40.55;33.25;;;11.30;99.90;;;;;;6243908;22;20007;-71
2023/04/17 08:06:18;;;;;;;42.42;33.28;;;11.30;99.90;;;;;;6242270;22;20023;-71
2023/04/17 08:08:46;;;;;;;47.92;34.83;;;11.30;99.90;;;;;;6243627;23;20415;-71
2023/04/17 08:11:13;;;;;;;44.10;32.38;;;11.30;99.90;;;;;;6240147;23;20022;-71
2023/04/17 08:13:39;;;;;;;41.28;34.25;;;11.40;99.90;;;;;;6242517;22;20005;-71
2023/04/17 08:16:05;;;;;;;39.00;32.15;;;11.40;99.90;;;;;;6242734;22;20556;-71
2023/04/17 08:18:31;;;;;;;43.25;32.80;;;11.50;99.90;;;;;;6242869;22;20518;-71
2023/04/17 08:20:56;;;;;;;48.67;35.00;;;11.50;99.90;;;;;;6243636;22;20014;-71
2023/04/17 08:23:22;;;;;;;44.97;33.55;;;11.50;99.90;;;;;;6241152;23;20498;-70
2023/04/17 08:25:47;;;;;;;66.25;39.55;;;11.40;99.90;;;;;;6243128;23;20000;-70
2023/04/17 08:28:13;;;;;;;51.35;36.80;;;11.40;99.90;;;;;;6242552;23;20389;-71
2023/04/17 08:30:38;;;;;;;42.70;32.88;;;11.30;99.90;;;;;;6241520;23;20038;-70
2023/04/17 08:33:04;;;;;;;48.47;34.67;;;11.30;99.90;;;;;;6241898;23;20012;-71
2023/04/17 08:35:30;;;;;;;50.08;34.40;;;11.20;99.90;;;;;;6240071;23;20091;-70
2023/04/17 08:37:57;;;;;;;48.75;35.97;;;11.30;99.90;;;;;;6243243;23;20040;-70
2023/04/17 08:40:25;;;;;;;59.53;41.60;;;11.20;99.90;;;;;;6242698;22;20081;-70
2023/04/17 08:42:52;;;;;;;48.15;37.45;;;11.30;99.90;;;;;;6241934;22;20054;-70
2023/04/17 08:45:19;;;;;;;50.70;40.10;;;11.40;99.90;;;;;;6241409;22;20011;-70
2023/04/17 08:47:45;;;;;;;46.42;37.05;;;11.50;99.90;;;;;;6243034;22;20494;-70
2023/04/17 08:50:13;;;;;;;48.03;39.05;;;11.60;99.90;;;;;;6241177;23;20023;-71
2023/04/17 08:52:46;;;;;;;48.20;37.90;;;11.70;99.90;;;;;;6243097;22;20000;-71
2023/04/17 08:55:22;;;;;;;49.75;37.60;;;11.90;99.90;;;;;;6241370;22;20143;-70
2023/04/17 08:57:56;;;;;;;46.65;38.25;;;12.00;99.90;;;;;;6241431;23;20444;-70
2023/04/17 09:00:30;;;;;;;63.28;39.75;;;12.20;99.90;;;;;;6243048;22;20000;-70
2023/04/17 09:02:57;;;;;;;53.85;41.00;;;12.40;99.90;;;;;;6241470;23;20079;-71
2023/04/17 09:05:24;;;;;;;44.90;35.72;;;12.60;99.90;;;;;;6239804;23;20008;-70
2023/04/17 09:08:06;;;;;;;51.55;38.28;;;12.60;99.90;;;;;;6241302;22;20000;-71
2023/04/17 09:10:40;;;;;;;46.13;36.17;;;12.70;99.90;;;;;;6241156;23;20023;-71
2023/04/17 09:13:07;;;;;;;42.05;35.20;;;12.80;99.90;;;;;;6242254;22;20384;-71
2023/04/17 09:15:33;;;;;;;47.97;37.25;;;12.90;99.90;;;;;;6242353;22;20050;-71
2023/04/17 09:17:59;;;;;;;46.20;36.75;;;13.00;99.90;;;;;;6241076;22;20004;-70
2023/04/17 09:20:25;;;;;;;43.05;35.65;;;13.20;99.90;;;;;;6242567;23;20072;-70
2023/04/17 09:23:02;;;;;;;44.17;34.88;;;13.30;99.90;;;;;;6243299;23;20000;-71
2023/04/17 09:25:28;;;;;;;40.67;35.45;;;13.40;99.90;;;;;;6242644;22;20039;-71
2023/04/17 09:28:00;;;;;;;43.13;37.10;;;13.50;99.90;;;;;;6242286;23;20421;-71
2023/04/17 09:30:26;;;;;;;41.55;34.53;;;13.50;99.90;;;;;;6241737;22;20004;-71
2023/04/17 09:33:03;;;;;;;41.40;34.38;;;13.60;99.90;;;;;;6242978;22;20016;-71
2023/04/17 09:35:29;;;;;;;41.17;33.40;;;13.60;99.90;;;;;;6242442;22;20000;-71
2023/04/17 09:37:58;;;;;;;38.33;32.60;;;13.60;99.90;;;;;;6243205;22;20070;-71
2023/04/17 09:40:24;;;;;;;42.35;34.60;;;13.70;99.90;;;;;;6240211;22;20006;-70
2023/04/17 09:43:04;;;;;;;44.65;34.83;;;13.70;99.90;;;;;;6242745;22;20004;-71
2023/04/17 09:45:40;;;;;;;42.45;33.78;;;13.70;99.90;;;;;;6241817;22;20079;-71
2023/04/17 09:48:11;;;;;;;38.05;29.35;;;13.70;99.90;;;;;;6242138;22;20027;-71
2023/04/17 09:50:37;;;;;;;35.67;30.50;;;13.70;99.90;;;;;;6241358;22;20026;-71
2023/04/17 09:53:04;;;;;;;35.95;30.77;;;13.60;99.90;;;;;;6242699;22;20014;-71
2023/04/17 09:55:30;;;;;;;34.70;30.27;;;13.60;99.90;;;;;;6241010;22;20000;-70
2023/04/17 09:57:58;;;;;;;39.17;30.05;;;13.70;99.90;;;;;;6242557;22;20061;-71
2023/04/17 10:00:28;;;;;;;35.45;30.30;;;13.70;99.90;;;;;;6241189;23;20007;-70
2023/04/17 10:02:55;;;;;;;34.47;27.92;;;13.70;99.90;;;;;;6240653;22;20011;-71
2023/04/17 10:05:27;;;;;;;39.80;30.38;;;13.70;99.90;;;;;;6241446;22;20138;-70
2023/04/17 10:07:53;;;;;;;34.30;29.40;;;13.80;99.90;;;;;;6241783;22;20004;-71
2023/04/17 10:10:25;;;;;;;34.38;28.00;;;13.90;99.90;;;;;;6241465;22;19997;-71
2023/04/17 10:12:54;;;;;;;35.95;29.50;;;14.00;99.90;;;;;;6241032;23;20010;-71
2023/04/17 10:15:21;;;;;;;35.95;29.45;;;14.00;99.90;;;;;;6242007;22;20001;-71
2023/04/17 10:17:48;;;;;;;34.67;30.38;;;14.10;99.90;;;;;;6242342;22;20079;-71
2023/04/17 10:20:14;;;;;;;30.90;25.52;;;14.10;99.90;;;;;;6241845;22;20000;-71
2023/04/17 10:22:41;;;;;;;34.25;27.52;;;14.10;99.90;;;;;;6241564;23;20008;-71
2023/04/17 10:25:12;;;;;;;31.92;28.52;;;14.20;99.90;;;;;;6240933;22;20004;-71
2023/04/17 10:27:38;;;;;;;34.55;28.92;;;14.20;99.90;;;;;;6242039;23;20007;-71
2023/04/17 10:30:08;;;;;;;30.20;26.92;;;14.20;99.90;;;;;;6240817;23;20419;-71
2023/04/17 10:32:34;;;;;;;30.38;25.65;;;14.30;99.90;;;;;;6240083;23;20012;-71
2023/04/17 10:35:02;;;;;;;30.13;26.73;;;14.30;99.90;;;;;;6239165;23;20067;-71
2023/04/17 10:37:46;;;;;;;32.25;27.15;;;14.30;99.90;;;;;;6242022;22;20005;-71
2023/04/17 10:40:19;;;;;;;26.70;23.77;;;14.40;99.90;;;;;;6241366;22;20028;-72
2023/04/17 10:43:01;;;;;;;28.02;24.27;;;14.50;99.90;;;;;;6242295;22;20457;-72
2023/04/17 10:46:05;;;;;;;30.48;24.00;;;14.70;99.90;;;;;;6240581;23;20012;-72
2023/04/17 10:48:33;;;;;;;23.65;21.02;;;14.90;99.90;;;;;;6242086;23;20054;-72
2023/04/17 10:51:01;;;;;;;28.00;23.27;;;15.10;99.90;;;;;;6242348;22;20310;-72
2023/04/17 10:53:40;;;;;;;28.13;23.23;;;15.20;99.90;;;;;;6239745;23;20008;-72
2023/04/17 10:56:06;;;;;;;23.95;20.92;;;15.30;99.90;;;;;;6239398;23;20064;-72
2023/04/17 10:58:35;;;;;;;23.58;21.15;;;15.30;99.90;;;;;;6241958;22;20001;-72
2023/04/17 11:01:07;;;;;;;23.17;19.75;;;15.20;99.20;;;;;;6242203;22;20411;-73
2023/04/17 11:03:36;;;;;;;20.20;17.73;;;15.20;98.80;;;;;;6241435;22;20410;-73
2023/04/17 11:06:01;;;;;;;22.48;18.33;;;15.20;98.20;;;;;;6242479;22;20004;-73
2023/04/17 11:08:27;;;;;;;22.13;19.40;;;15.30;97.80;;;;;;6239552;23;20325;-72
2023/04/17 11:10:55;;;;;;;24.42;20.02;;;15.30;97.10;;;;;;6242414;23;20000;-72
2023/04/17 11:13:21;;;;;;;19.63;17.58;;;15.30;96.70;;;;;;6241863;23;20004;-73
2023/04/17 11:15:46;;;;;;;23.35;19.30;;;15.40;96.30;;;;;;6241534;22;20011;-72
2023/04/17 11:18:12;;;;;;;22.60;18.15;;;15.40;96.10;;;;;;6238807;23;20089;-73
2023/04/17 11:20:39;;;;;;;20.30;18.13;;;15.50;96.00;;;;;;6244248;23;20000;-73
2023/04/17 11:23:05;;;;;;;22.65;18.60;;;15.50;95.80;;;;;;6243664;22;20004;-72
2023/04/17 11:25:32;;;;;;;22.27;20.17;;;15.70;95.70;;;;;;6243713;23;20778;-72
2023/04/17 11:28:04;;;;;;;21.50;17.98;;;15.90;95.80;;;;;;6244045;22;20056;-72
2023/04/17 11:30:34;;;;;;;18.92;16.90;;;16.00;95.40;;;;;;6242312;22;20433;-73
2023/04/17 11:33:01;;;;;;;20.80;17.45;;;16.10;93.70;;;;;;6243842;22;20039;-71
2023/04/17 11:35:37;;;;;;;21.50;17.83;;;16.10;92.70;;;;;;6243678;22;20008;-70
2023/04/17 11:38:17;;;;;;;22.08;17.35;;;16.00;92.70;;;;;;6243448;22;20061;-70
2023/04/17 11:40:49;;;;;;;19.08;16.83;;;16.00;92.20;;;;;;6242766;22;20011;-70
2023/04/17 11:43:15;;;;;;;21.27;16.65;;;16.10;92.20;;;;;;6242613;22;20004;-70
2023/04/17 11:45:43;;;;;;;21.42;18.55;;;16.10;92.40;;;;;;6242098;23;20417;-69
2023/04/17 11:48:11;;;;;;;17.30;15.23;;;16.20;92.40;;;;;;6243465;22;20008;-69
2023/04/17 11:50:37;;;;;;;20.60;15.55;;;16.20;91.80;;;;;;6243245;22;20004;-69
2023/04/17 11:53:03;;;;;;;22.25;17.35;;;16.30;92.00;;;;;;6242836;22;20008;-69
2023/04/17 11:55:30;;;;;;;20.48;17.48;;;16.40;91.90;;;;;;6243507;22;20004;-69
2023/04/17 11:58:07;;;;;;;21.75;17.85;;;16.40;91.90;;;;;;6244171;22;20093;-69
2023/04/17 12:00:33;;;;;;;16.73;14.98;;;16.40;91.80;;;;;;6243820;22;20010;-72
2023/04/17 12:03:01;;;;;;;19.75;17.75;;;16.40;91.50;;;;;;6242471;23;20018;-72
2023/04/17 12:05:28;;;;;;;18.52;16.60;;;16.40;89.10;;;;;;6240944;23;20422;-72
2023/04/17 12:08:07;;;;;;;19.33;17.23;;;16.20;88.80;;;;;;6243938;22;20024;-69
2023/04/17 12:10:50;;;;;;;18.05;15.75;;;16.20;89.80;;;;;;6243556;23;20000;-69
2023/04/17 12:13:15;;;;;;;19.08;17.05;;;16.10;90.20;;;;;;6242027;23;20008;-69
2023/04/17 12:15:41;;;;;;;18.13;16.27;;;16.10;89.60;;;;;;6241581;23;20073;-70
2023/04/17 12:18:08;;;;;;;20.05;17.48;;;16.10;90.00;;;;;;6243220;23;20370;-71
2023/04/17 12:20:35;;;;;;;20.58;17.95;;;16.20;89.80;;;;;;6242762;22;20058;-70
2023/04/17 12:23:02;;;;;;;18.50;16.35;;;16.30;89.10;;;;;;6243365;22;20058;-70
2023/04/17 12:25:27;;;;;;;17.90;15.93;;;16.30;86.20;;;;;;6241881;22;20080;-70
2023/04/17 12:27:55;;;;;;;18.10;16.17;;;16.30;87.10;;;;;;6243037;23;20028;-72